Time;durP1;ratioP1;P1;durP2;ratioP2;P2;SDS_P1;SDS_P2;PMS_P1;PMS_P2;Temp;Humidity;BMP_temperature;BMP_pressure;BME280_temperature;BME280_humidity;BME280_pressure;Samples;Min_cycle;Max_cycle;Signal;HPM_P1;HPM_P2
2022/04/29 00:02:28;;;;;;;14.10;4.05;;;;;;;;;;5280307;28;20115;-69
2022/04/29 00:04:59;;;;;;;17.98;5.18;;;;;;;;;;5281533;28;20111;-69
2022/04/29 00:07:30;;;;;;;11.65;4.22;;;;;;;;;;5280850;28;20286;-69
2022/04/29 00:10:02;;;;;;;11.43;4.10;;;;;;;;;;5280871;28;20251;-69
2022/04/29 00:12:33;;;;;;;14.30;4.63;;;;;;;;;;5280970;28;20031;-69
2022/04/29 00:15:05;;;;;;;13.75;4.60;;;;;;;;;;5281036;28;20117;-69
2022/04/29 00:17:36;;;;;;;9.38;4.10;;;;;;;;;;5280134;28;20157;-69
2022/04/29 00:20:08;;;;;;;10.55;4.43;;;;;;;;;;5281587;28;20020;-69
2022/04/29 00:22:39;;;;;;;13.88;5.10;;;;;;;;;;5280897;28;20020;-69
2022/04/29 00:25:11;;;;;;;12.48;4.20;;;;;;;;;;5280689;28;20031;-69
2022/04/29 00:27:43;;;;;;;11.80;4.78;;;;;;;;;;5283371;28;20020;-69
2022/04/29 00:30:14;;;;;;;14.70;4.15;;;;;;;;;;5285076;28;20025;-69
2022/04/29 00:32:45;;;;;;;11.75;4.30;;;;;;;;;;5284697;28;20020;-70
2022/04/29 00:35:16;;;;;;;11.20;4.80;;;;;;;;;;5285368;28;20028;-68
2022/04/29 00:37:48;;;;;;;14.02;4.95;;;;;;;;;;5283772;28;20294;-69
2022/04/29 00:40:21;;;;;;;17.75;5.57;;;;;;;;;;5284808;28;20039;-68
2022/04/29 00:42:52;;;;;;;9.45;4.75;;;;;;;;;;5284862;28;20031;-69
2022/04/29 00:45:24;;;;;;;15.25;5.07;;;;;;;;;;5283776;28;20414;-69
2022/04/29 00:47:55;;;;;;;10.32;5.20;;;;;;;;;;5284920;28;20132;-69
2022/04/29 00:50:28;;;;;;;10.18;5.43;;;;;;;;;;5284282;28;20042;-69
2022/04/29 00:52:59;;;;;;;9.65;4.85;;;;;;;;;;5284190;28;20020;-69
2022/04/29 00:55:33;;;;;;;11.48;5.32;;;;;;;;;;5284412;28;20498;-69
2022/04/29 00:58:06;;;;;;;11.35;4.75;;;;;;;;;;5284866;28;20372;-69
2022/04/29 01:00:38;;;;;;;15.05;5.40;;;;;;;;;;5283502;28;20056;-69
2022/04/29 01:03:13;;;;;;;9.95;5.30;;;;;;;;;;5284778;28;20020;-69
2022/04/29 01:05:44;;;;;;;19.02;5.47;;;;;;;;;;5283507;28;20462;-69
2022/04/29 01:08:15;;;;;;;11.90;5.20;;;;;;;;;;5284711;28;20067;-69
2022/04/29 01:10:47;;;;;;;11.07;4.85;;;;;;;;;;5284040;28;20039;-69
2022/04/29 01:13:19;;;;;;;10.55;5.20;;;;;;;;;;5283276;28;20034;-69
2022/04/29 01:15:51;;;;;;;11.35;5.00;;;;;;;;;;5284212;28;20043;-69
2022/04/29 01:18:24;;;;;;;11.98;5.20;;;;;;;;;;5283979;28;20040;-70
2022/04/29 01:21:05;;;;;;;16.15;5.85;;;;;;;;;;5283807;28;20035;-69
2022/04/29 01:23:36;;;;;;;8.55;4.25;;;;;;;;;;5283736;28;20016;-69
2022/04/29 01:26:09;;;;;;;9.06;4.62;;;;;;;;;;5284275;28;20028;-69
2022/04/29 01:28:48;;;;;;;14.93;6.07;;;;;;;;;;5282991;28;20841;-69
2022/04/29 01:31:22;;;;;;;12.47;5.17;;;;;;;;;;5283956;28;20041;-70
2022/04/29 01:33:53;;;;;;;12.52;5.60;;;;;;;;;;5283178;28;20017;-69
2022/04/29 01:36:24;;;;;;;18.23;5.38;;;;;;;;;;5283323;28;20099;-69
2022/04/29 01:38:55;;;;;;;13.98;5.00;;;;;;;;;;5283097;28;20086;-69
2022/04/29 01:41:27;;;;;;;14.55;5.63;;;;;;;;;;5282549;28;20013;-69
2022/04/29 01:43:58;;;;;;;10.50;5.88;;;;;;;;;;5283941;28;20368;-69
2022/04/29 01:46:29;;;;;;;8.90;4.70;;;;;;;;;;5283214;28;20026;-69
2022/04/29 01:49:00;;;;;;;13.68;5.68;;;;;;;;;;5282776;28;20037;-69
2022/04/29 01:51:31;;;;;;;13.38;5.93;;;;;;;;;;5283464;28;20024;-69
2022/04/29 01:54:04;;;;;;;14.92;6.26;;;;;;;;;;5283821;28;20263;-69
2022/04/29 01:56:35;;;;;;;15.95;5.55;;;;;;;;;;5282292;28;20447;-69
2022/04/29 01:59:07;;;;;;;13.35;5.70;;;;;;;;;;5283543;28;20056;-69
2022/04/29 02:01:38;;;;;;;10.80;5.35;;;;;;;;;;5282680;28;20088;-69
2022/04/29 02:04:09;;;;;;;7.95;5.05;;;;;;;;;;5282959;28;20479;-69
2022/04/29 02:06:41;;;;;;;9.42;4.80;;;;;;;;;;5283168;28;20021;-69
2022/04/29 02:09:12;;;;;;;14.57;6.38;;;;;;;;;;5282717;28;20024;-69
2022/04/29 02:12:03;;;;;;;13.15;5.95;;;;;;;;;;5282797;28;20009;-69
2022/04/29 02:14:37;;;;;;;12.07;5.45;;;;;;;;;;5282739;28;20051;-69
2022/04/29 02:17:09;;;;;;;10.68;5.20;;;;;;;;;;5282533;28;20025;-69
2022/04/29 02:19:40;;;;;;;17.05;6.32;;;;;;;;;;5282602;28;20093;-69
2022/04/29 02:22:12;;;;;;;10.98;5.18;;;;;;;;;;5283132;28;20103;-70
2022/04/29 02:24:43;;;;;;;10.84;5.02;;;;;;;;;;5281612;28;20024;-69
2022/04/29 02:27:14;;;;;;;11.57;6.57;;;;;;;;;;5283142;28;20025;-69
2022/04/29 02:29:46;;;;;;;10.40;5.38;;;;;;;;;;5282386;28;20761;-68
2022/04/29 02:32:17;;;;;;;14.65;6.13;;;;;;;;;;5282166;28;20023;-68
2022/04/29 02:34:49;;;;;;;14.98;6.15;;;;;;;;;;5282334;28;20032;-68
2022/04/29 02:37:20;;;;;;;11.70;6.03;;;;;;;;;;5281861;28;20044;-69
2022/04/29 02:39:51;;;;;;;10.13;5.70;;;;;;;;;;5282432;28;20088;-69
2022/04/29 02:42:23;;;;;;;12.88;5.65;;;;;;;;;;5281893;28;20052;-69
2022/04/29 02:44:54;;;;;;;12.75;6.15;;;;;;;;;;5281578;28;20270;-69
2022/04/29 02:47:25;;;;;;;10.50;6.07;;;;;;;;;;5281702;28;20042;-69
2022/04/29 02:49:57;;;;;;;13.40;5.88;;;;;;;;;;5282413;28;20444;-69
2022/04/29 02:52:29;;;;;;;13.07;6.00;;;;;;;;;;5281250;28;20020;-69
2022/04/29 02:55:00;;;;;;;9.52;5.40;;;;;;;;;;5282497;28;20021;-69
2022/04/29 02:57:31;;;;;;;12.70;6.38;;;;;;;;;;5281561;28;20488;-69
2022/04/29 03:00:03;;;;;;;14.34;6.40;;;;;;;;;;5281837;28;20274;-69
2022/04/29 03:02:34;;;;;;;14.00;6.57;;;;;;;;;;5281957;28;20035;-69
2022/04/29 03:05:05;;;;;;;13.00;6.60;;;;;;;;;;5281630;28;20016;-69
2022/04/29 03:07:36;;;;;;;17.33;6.40;;;;;;;;;;5281671;28;20020;-69
2022/04/29 03:10:08;;;;;;;12.80;7.63;;;;;;;;;;5282257;28;20017;-68
2022/04/29 03:12:39;;;;;;;14.45;6.63;;;;;;;;;;5280977;28;20027;-70
2022/04/29 03:15:16;;;;;;;11.72;5.84;;;;;;;;;;5282125;28;20062;-70
2022/04/29 03:20:38;;;;;;;13.90;6.80;;;;;;;;;;5280952;28;20036;-70
2022/04/29 03:23:09;;;;;;;15.88;7.63;;;;;;;;;;5282283;28;20008;-69
2022/04/29 03:25:41;;;;;;;13.07;7.10;;;;;;;;;;5281493;28;20020;-70
2022/04/29 03:28:12;;;;;;;11.75;6.65;;;;;;;;;;5281342;28;20134;-70
2022/04/29 03:30:45;;;;;;;13.85;6.95;;;;;;;;;;5281268;28;20021;-69
2022/04/29 03:33:16;;;;;;;19.55;7.53;;;;;;;;;;5281066;28;20036;-69
2022/04/29 03:35:47;;;;;;;10.32;6.46;;;;;;;;;;5281465;28;20059;-68
2022/04/29 03:38:19;;;;;;;12.60;6.90;;;;;;;;;;5281528;28;20028;-68
2022/04/29 03:40:50;;;;;;;14.32;8.02;;;;;;;;;;5280814;28;20399;-68
2022/04/29 03:43:21;;;;;;;16.20;7.30;;;;;;;;;;5281119;28;20475;-69
2022/04/29 03:45:52;;;;;;;17.10;7.96;;;;;;;;;;5282053;28;20031;-69
2022/04/29 03:48:23;;;;;;;15.57;7.80;;;;;;;;;;5280585;28;20027;-68
2022/04/29 03:50:54;;;;;;;13.24;7.32;;;;;;;;;;5281874;28;20056;-68
2022/04/29 03:53:26;;;;;;;13.48;7.13;;;;;;;;;;5281290;28;20017;-68
2022/04/29 03:55:57;;;;;;;12.94;7.14;;;;;;;;;;5280848;28;20432;-68
2022/04/29 03:58:28;;;;;;;10.18;6.93;;;;;;;;;;5281100;28;20074;-68
2022/04/29 04:00:59;;;;;;;13.02;7.70;;;;;;;;;;5281745;28;20365;-69
2022/04/29 04:03:30;;;;;;;17.67;8.13;;;;;;;;;;5284463;28;20028;-69
2022/04/29 04:08:51;;;;;;;15.88;8.27;;;;;;;;;;5284936;28;20021;-69
2022/04/29 04:11:22;;;;;;;15.02;8.45;;;;;;;;;;5285474;28;20017;-69
2022/04/29 04:13:54;;;;;;;16.33;7.68;;;;;;;;;;5285648;28;20104;-69
2022/04/29 04:16:25;;;;;;;16.92;8.20;;;;;;;;;;5283975;28;20052;-69
2022/04/29 04:18:56;;;;;;;18.30;9.30;;;;;;;;;;5285444;28;20028;-69
2022/04/29 04:21:27;;;;;;;17.60;8.50;;;;;;;;;;5284748;28;20523;-69
2022/04/29 04:23:59;;;;;;;14.80;8.93;;;;;;;;;;5284819;28;20553;-68
2022/04/29 04:26:30;;;;;;;10.95;8.32;;;;;;;;;;5284895;28;20021;-69
2022/04/29 04:29:01;;;;;;;15.78;9.50;;;;;;;;;;5285271;28;20495;-69
2022/04/29 04:31:32;;;;;;;19.38;8.98;;;;;;;;;;5283870;28;20066;-69
2022/04/29 04:34:49;;;;;;;14.40;8.88;;;;;;;;;;5285327;28;20022;-69
2022/04/29 04:36:54;;;;;;;13.98;9.18;;;;;;;;;;5284046;28;20310;-69
2022/04/29 04:39:26;;;;;;;14.45;8.43;;;;;;;;;;5284605;28;20015;-69
2022/04/29 04:41:57;;;;;;;17.17;10.18;;;;;;;;;;5285020;28;20082;-69
2022/04/29 04:44:28;;;;;;;15.10;11.27;;;;;;;;;;5283754;28;20095;-69
2022/04/29 04:46:59;;;;;;;20.46;8.98;;;;;;;;;;5285133;28;20048;-69
2022/04/29 04:49:31;;;;;;;14.76;9.02;;;;;;;;;;5284289;28;20464;-69
2022/04/29 04:52:02;;;;;;;21.48;9.95;;;;;;;;;;5284038;28;20074;-69
2022/04/29 04:54:34;;;;;;;20.02;10.85;;;;;;;;;;5284145;28;20017;-69
2022/04/29 04:57:05;;;;;;;17.88;9.73;;;;;;;;;;5284675;28;20045;-69
2022/04/29 04:59:36;;;;;;;20.45;10.13;;;;;;;;;;5283244;28;20425;-69
2022/04/29 05:02:08;;;;;;;21.90;9.60;;;;;;;;;;5284676;28;20036;-69
2022/04/29 05:04:39;;;;;;;22.86;9.96;;;;;;;;;;5283217;28;20029;-68
2022/04/29 05:07:10;;;;;;;14.23;9.82;;;;;;;;;;5284821;28;20486;-68
2022/04/29 05:09:41;;;;;;;20.22;10.00;;;;;;;;;;5284088;28;20104;-69
2022/04/29 05:12:14;;;;;;;13.93;9.75;;;;;;;;;;5283655;28;20020;-69
2022/04/29 05:14:45;;;;;;;16.42;10.60;;;;;;;;;;5283694;28;20032;-68
2022/04/29 05:17:16;;;;;;;18.35;10.50;;;;;;;;;;5284196;28;20028;-68
2022/04/29 05:19:47;;;;;;;19.38;10.62;;;;;;;;;;5282957;28;20016;-69
2022/04/29 05:22:20;;;;;;;18.55;9.98;;;;;;;;;;5283658;28;20024;-69
2022/04/29 05:24:51;;;;;;;22.08;11.02;;;;;;;;;;5283893;28;20643;-68
2022/04/29 05:27:22;;;;;;;22.88;11.27;;;;;;;;;;5282727;28;20024;-69
2022/04/29 05:29:53;;;;;;;17.52;10.48;;;;;;;;;;5284454;28;20316;-69
2022/04/29 05:32:25;;;;;;;16.80;11.38;;;;;;;;;;5283496;28;20516;-69
2022/04/29 05:34:58;;;;;;;18.17;11.02;;;;;;;;;;5283509;28;20012;-70
2022/04/29 05:37:29;;;;;;;18.33;11.20;;;;;;;;;;5283401;28;20029;-68
2022/04/29 05:42:52;;;;;;;19.10;10.15;;;;;;;;;;5283687;28;20028;-71
2022/04/29 05:45:23;;;;;;;18.48;10.35;;;;;;;;;;5283167;28;20028;-68
2022/04/29 05:47:54;;;;;;;17.65;11.05;;;;;;;;;;5282971;28;20510;-69
2022/04/29 05:50:26;;;;;;;21.15;11.18;;;;;;;;;;5283094;28;20025;-69
2022/04/29 05:52:57;;;;;;;21.98;10.18;;;;;;;;;;5283757;28;20017;-68
2022/04/29 05:55:28;;;;;;;22.46;11.64;;;;;;;;;;5282311;28;20035;-69
2022/04/29 05:57:59;;;;;;;16.92;10.78;;;;;;;;;;5283618;28;20028;-69
2022/04/29 06:00:30;;;;;;;25.63;11.82;;;;;;;;;;5282779;28;20040;-69
2022/04/29 06:03:02;;;;;;;19.05;11.52;;;;;;;;;;5283030;28;20309;-70
2022/04/29 06:05:33;;;;;;;17.38;11.10;;;;;;;;;;5283141;28;20058;-69
2022/04/29 06:08:04;;;;;;;15.55;10.60;;;;;;;;;;5282648;28;20028;-69
2022/04/29 06:10:35;;;;;;;18.85;11.00;;;;;;;;;;5282644;28;20020;-69
2022/04/29 06:13:08;;;;;;;21.06;12.00;;;;;;;;;;5283204;28;20023;-69
2022/04/29 06:15:39;;;;;;;20.67;12.38;;;;;;;;;;5281419;28;20028;-67
2022/04/29 06:18:10;;;;;;;30.08;12.57;;;;;;;;;;5283100;28;20047;-68
2022/04/29 06:20:42;;;;;;;22.02;11.44;;;;;;;;;;5282609;28;20749;-68
2022/04/29 06:23:13;;;;;;;22.30;11.77;;;;;;;;;;5282310;28;20018;-68
2022/04/29 06:25:44;;;;;;;19.02;12.05;;;;;;;;;;5281640;28;20032;-69
2022/04/29 06:28:15;;;;;;;18.88;10.32;;;;;;;;;;5282970;28;20455;-69
2022/04/29 06:30:46;;;;;;;16.92;10.98;;;;;;;;;;5281541;28;20302;-68
2022/04/29 06:33:18;;;;;;;17.38;10.86;;;;;;;;;;5282780;28;20379;-68
2022/04/29 06:35:50;;;;;;;19.88;11.80;;;;;;;;;;5282466;28;20016;-68
2022/04/29 06:38:21;;;;;;;20.33;11.77;;;;;;;;;;5280965;28;20051;-69
2022/04/29 06:40:53;;;;;;;23.15;12.05;;;;;;;;;;5282905;28;20020;-68
2022/04/29 06:43:24;;;;;;;18.45;10.43;;;;;;;;;;5281279;28;20124;-68
2022/04/29 06:45:55;;;;;;;19.23;10.95;;;;;;;;;;5282707;28;20601;-69
2022/04/29 06:48:27;;;;;;;24.25;12.98;;;;;;;;;;5282010;28;20020;-69
2022/04/29 06:50:58;;;;;;;20.88;10.68;;;;;;;;;;5281733;28;20096;-68
2022/04/29 06:53:29;;;;;;;16.77;11.55;;;;;;;;;;5282062;28;20020;-69
2022/04/29 06:56:00;;;;;;;22.55;11.05;;;;;;;;;;5282496;28;20025;-68
2022/04/29 06:58:32;;;;;;;18.30;11.98;;;;;;;;;;5280975;28;20039;-69
2022/04/29 07:01:03;;;;;;;22.98;12.68;;;;;;;;;;5282137;28;20474;-69
2022/04/29 07:03:35;;;;;;;17.55;12.10;;;;;;;;;;5281403;28;20035;-69
2022/04/29 07:06:06;;;;;;;23.40;12.35;;;;;;;;;;5281390;28;20068;-69
2022/04/29 07:08:38;;;;;;;21.30;10.52;;;;;;;;;;5281720;28;20126;-69
2022/04/29 07:11:09;;;;;;;20.88;11.20;;;;;;;;;;5281697;28;20027;-69
2022/04/29 07:13:42;;;;;;;25.33;13.05;;;;;;;;;;5281382;28;20020;-69
2022/04/29 07:16:14;;;;;;;19.73;10.95;;;;;;;;;;5281691;28;20049;-69
2022/04/29 07:18:45;;;;;;;20.55;11.77;;;;;;;;;;5280636;28;20044;-69
2022/04/29 07:21:16;;;;;;;19.90;11.55;;;;;;;;;;5282039;28;20046;-69
2022/04/29 07:23:47;;;;;;;20.02;11.88;;;;;;;;;;5281161;28;20099;-69
2022/04/29 07:26:19;;;;;;;20.52;12.07;;;;;;;;;;5280810;28;20019;-69
2022/04/29 07:28:50;;;;;;;19.08;12.15;;;;;;;;;;5281742;28;20016;-69
2022/04/29 07:31:21;;;;;;;21.60;10.75;;;;;;;;;;5281507;28;20032;-69
2022/04/29 07:33:52;;;;;;;19.42;11.85;;;;;;;;;;5281068;28;20020;-69
2022/04/29 07:42:03;;;;;;;24.63;12.52;;;;;;;;;;5281723;28;20025;-68
2022/04/29 07:44:35;;;;;;;15.68;10.35;;;;;;;;;;5281043;28;20036;-68
2022/04/29 07:47:07;;;;;;;17.83;12.27;;;;;;;;;;5280766;28;20110;-68
2022/04/29 07:49:38;;;;;;;25.08;12.13;;;;;;;;;;5281163;28;20089;-69
2022/04/29 07:52:10;;;;;;;22.50;12.23;;;;;;;;;;5281610;28;20047;-68
2022/04/29 07:54:41;;;;;;;22.42;12.38;;;;;;;;;;5280332;28;20021;-69
2022/04/29 07:57:12;;;;;;;18.88;11.00;;;;;;;;;;5281483;28;20290;-69
2022/04/29 07:59:43;;;;;;;22.73;12.10;;;;;;;;;;5275472;28;20028;-68
2022/04/29 08:02:14;;;;;;;19.00;11.77;;;;;;;;;;5279846;28;20028;-68
2022/04/29 08:04:46;;;;;;;25.40;11.88;;;;;;;;;;5280056;28;20047;-69
2022/04/29 08:07:17;;;;;;;19.83;12.65;;;;;;;;;;5280749;28;20263;-68
2022/04/29 08:09:48;;;;;;;20.45;11.52;;;;;;;;;;5279400;28;20017;-68
2022/04/29 08:12:21;;;;;;;19.00;11.20;;;;;;;;;;5280523;28;20267;-68
2022/04/29 08:14:53;;;;;;;23.33;13.00;;;;;;;;;;5281293;28;20282;-67
2022/04/29 08:17:25;;;;;;;25.30;13.32;;;;;;;;;;5301015;28;20371;-68
2022/04/29 08:19:58;;;;;;;19.88;12.18;;;;;;;;;;5301809;28;20031;-68
2022/04/29 08:22:29;;;;;;;58.17;14.93;;;;;;;;;;5300171;28;20099;-70
2022/04/29 08:25:00;;;;;;;35.83;13.60;;;;;;;;;;5301775;28;20095;-69
2022/04/29 08:27:31;;;;;;;17.27;11.88;;;;;;;;;;5301336;28;20331;-69
2022/04/29 08:30:05;;;;;;;20.60;12.13;;;;;;;;;;5301365;28;20024;-69
2022/04/29 08:32:38;;;;;;;19.42;11.10;;;;;;;;;;5301616;28;20051;-69
2022/04/29 08:35:10;;;;;;;20.80;12.10;;;;;;;;;;5301567;28;20016;-69
2022/04/29 08:37:42;;;;;;;27.60;12.32;;;;;;;;;;5300398;28;20275;-69
2022/04/29 08:40:13;;;;;;;16.45;11.73;;;;;;;;;;5281055;28;20031;-69
2022/04/29 08:42:44;;;;;;;22.85;12.80;;;;;;;;;;5279555;28;20471;-69
2022/04/29 08:45:16;;;;;;;20.73;12.45;;;;;;;;;;5280984;28;20031;-69
2022/04/29 08:47:48;;;;;;;20.42;11.85;;;;;;;;;;5281625;28;20078;-69
2022/04/29 08:50:20;;;;;;;20.23;12.02;;;;;;;;;;5283955;28;20451;-69
2022/04/29 08:52:53;;;;;;;20.17;12.02;;;;;;;;;;5284599;28;20052;-68
2022/04/29 09:01:08;;;;;;;19.00;11.05;;;;;;;;;;5284862;28;20032;-68
2022/04/29 09:03:42;;;;;;;18.55;11.95;;;;;;;;;;5283566;28;20027;-68
2022/04/29 09:06:22;;;;;;;20.35;12.20;;;;;;;;;;5284514;28;20024;-68
2022/04/29 09:08:53;;;;;;;24.00;11.10;;;;;;;;;;5284098;28;20091;-68
2022/04/29 09:11:25;;;;;;;21.25;11.20;;;;;;;;;;5283075;28;20157;-69
2022/04/29 09:13:56;;;;;;;18.15;11.75;;;;;;;;;;5284348;28;20020;-69
2022/04/29 09:16:28;;;;;;;18.63;11.77;;;;;;;;;;5283304;28;20060;-68
2022/04/29 09:18:59;;;;;;;21.20;12.02;;;;;;;;;;5283257;28;20522;-68
2022/04/29 09:21:31;;;;;;;20.95;12.05;;;;;;;;;;5283658;28;20066;-69
2022/04/29 09:24:06;;;;;;;20.27;11.77;;;;;;;;;;5284102;28;20279;-68
2022/04/29 09:26:38;;;;;;;22.40;12.65;;;;;;;;;;5282813;28;20039;-68
2022/04/29 09:29:11;;;;;;;21.77;11.30;;;;;;;;;;5284130;28;20070;-68
2022/04/29 09:31:52;;;;;;;20.70;10.43;;;;;;;;;;5283479;28;20499;-68
2022/04/29 09:34:24;;;;;;;21.38;11.18;;;;;;;;;;5283480;28;20024;-68
2022/04/29 09:37:12;;;;;;;19.45;10.55;;;;;;;;;;5283869;28;20107;-68
2022/04/29 09:39:53;;;;;;;17.70;9.80;;;;;;;;;;5282550;28;20378;-68
2022/04/29 09:42:35;;;;;;;20.48;10.05;;;;;;;;;;5283355;28;20020;-68
2022/04/29 09:45:24;;;;;;;18.00;10.68;;;;;;;;;;5283870;28;20046;-68
2022/04/29 09:47:58;;;;;;;22.30;11.40;;;;;;;;;;5282806;28;20051;-68
2022/04/29 09:50:49;;;;;;;20.20;10.85;;;;;;;;;;5282832;28;20012;-68
2022/04/29 09:53:23;;;;;;;20.65;10.45;;;;;;;;;;5282352;28;20024;-68
2022/04/29 09:56:05;;;;;;;21.63;10.98;;;;;;;;;;5283477;28;20019;-68
2022/04/29 09:58:37;;;;;;;23.48;10.90;;;;;;;;;;5282149;28;20033;-68
2022/04/29 10:01:08;;;;;;;19.58;11.02;;;;;;;;;;5281946;28;20024;-69
2022/04/29 10:03:40;;;;;;;20.33;11.18;;;;;;;;;;5282809;28;20388;-69
2022/04/29 10:06:12;;;;;;;17.23;11.55;;;;;;;;;;5283389;28;20371;-69
2022/04/29 10:08:44;;;;;;;25.10;12.07;;;;;;;;;;5281811;28;20259;-69
2022/04/29 10:11:16;;;;;;;22.73;11.20;;;;;;;;;;5283353;28;20027;-68
2022/04/29 10:13:48;;;;;;;20.65;10.77;;;;;;;;;;5282565;28;20035;-69
2022/04/29 10:16:20;;;;;;;15.60;11.93;;;;;;;;;;5281741;28;20049;-70
2022/04/29 10:21:51;;;;;;;16.40;10.95;;;;;;;;;;5281762;28;20523;-69
2022/04/29 10:24:25;;;;;;;21.48;10.57;;;;;;;;;;5282155;28;20092;-70
2022/04/29 10:26:57;;;;;;;20.08;11.57;;;;;;;;;;5282726;28;20062;-69
2022/04/29 10:29:28;;;;;;;21.63;10.75;;;;;;;;;;5281365;28;20370;-69
2022/04/29 10:32:09;;;;;;;21.10;12.43;;;;;;;;;;5282527;28;20021;-70
2022/04/29 10:34:40;;;;;;;22.40;10.77;;;;;;;;;;5282013;28;20020;-69
2022/04/29 10:37:12;;;;;;;23.40;11.82;;;;;;;;;;5281932;28;20039;-69
2022/04/29 10:40:04;;;;;;;16.10;10.38;;;;;;;;;;5281966;28;20621;-69
2022/04/29 10:42:54;;;;;;;17.15;10.18;;;;;;;;;;5280983;28;20028;-70
2022/04/29 10:45:25;;;;;;;22.38;10.85;;;;;;;;;;5281979;28;20024;-69
2022/04/29 10:47:56;;;;;;;19.63;10.50;;;;;;;;;;5282180;28;20020;-69
2022/04/29 10:50:31;;;;;;;23.17;11.07;;;;;;;;;;5280882;28;20456;-69
2022/04/29 10:53:03;;;;;;;20.02;11.15;;;;;;;;;;5282057;28;20128;-70
2022/04/29 10:55:34;;;;;;;23.15;10.75;;;;;;;;;;5281674;28;20511;-69
2022/04/29 10:58:19;;;;;;;25.58;11.63;;;;;;;;;;5281027;28;20081;-69
2022/04/29 11:00:53;;;;;;;16.02;11.93;;;;;;;;;;5261108;28;20428;-69
2022/04/29 11:03:38;;;;;;;19.17;11.55;;;;;;;;;;5260202;28;20070;-69
2022/04/29 11:06:10;;;;;;;23.33;11.18;;;;;;;;;;5261419;28;20033;-69
2022/04/29 11:08:42;;;;;;;18.17;10.68;;;;;;;;;;5260862;28;20057;-69
2022/04/29 11:11:13;;;;;;;17.00;10.25;;;;;;;;;;5260137;28;20072;-67
2022/04/29 11:13:47;;;;;;;21.57;10.30;;;;;;;;;;5260718;28;20025;-69
2022/04/29 11:16:19;;;;;;;19.75;10.02;;;;;;;;;;5260658;28;20290;-70
2022/04/29 11:19:10;;;;;;;17.55;9.45;;;;;;;;;;5259842;28;20028;-68
2022/04/29 11:24:40;;;;;;;26.50;9.30;;;;;;;;;;5260346;28;20464;-69
2022/04/29 11:24:42;;;;;;;21.52;10.85;;;;;;;;;;5259747;28;20068;-69
2022/04/29 11:27:13;;;;;;;18.40;9.10;;;;;;;;;;5260920;28;20495;-69
2022/04/29 11:29:45;;;;;;;12.55;8.52;;;;;;;;;;5259771;28;20028;-69
2022/04/29 11:32:22;;;;;;;17.00;8.88;;;;;;;;;;5259483;28;20020;-70
2022/04/29 11:34:54;;;;;;;18.52;9.50;;;;;;;;;;5261154;28;20017;-68
2022/04/29 11:37:26;;;;;;;17.63;8.52;;;;;;;;;;5260328;28;20028;-69
2022/04/29 11:40:00;;;;;;;17.67;9.15;;;;;;;;;;5260306;28;20414;-69
2022/04/29 11:42:32;;;;;;;17.38;8.55;;;;;;;;;;5259291;28;20451;-71
2022/04/29 11:45:04;;;;;;;21.58;8.75;;;;;;;;;;5259950;28;20109;-68
2022/04/29 11:47:36;;;;;;;19.15;9.43;;;;;;;;;;5259013;28;20021;-70
2022/04/29 11:50:08;;;;;;;13.45;8.07;;;;;;;;;;5260374;28;20354;-70
2022/04/29 11:52:39;;;;;;;19.20;7.63;;;;;;;;;;5259161;28;20017;-72
2022/04/29 11:55:14;;;;;;;36.03;10.52;;;;;;;;;;5260634;28;20031;-69
2022/04/29 11:57:46;;;;;;;16.33;7.55;;;;;;;;;;5260039;28;20040;-69
2022/04/29 12:00:22;;;;;;;19.95;8.27;;;;;;;;;;5259935;28;20024;-69
2022/04/29 12:02:54;;;;;;;17.90;7.95;;;;;;;;;;5260566;28;20033;-69
2022/04/29 12:05:26;;;;;;;13.45;7.88;;;;;;;;;;5259889;28;20017;-69
2022/04/29 12:07:59;;;;;;;24.58;7.68;;;;;;;;;;5259752;28;20476;-69
2022/04/29 12:10:31;;;;;;;19.17;7.20;;;;;;;;;;5259884;28;20045;-68
2022/04/29 12:13:04;;;;;;;17.27;7.22;;;;;;;;;;5260321;28;20059;-69
2022/04/29 12:15:36;;;;;;;13.10;6.75;;;;;;;;;;5258831;28;20189;-69
2022/04/29 12:18:11;;;;;;;16.50;7.20;;;;;;;;;;5260028;28;20029;-69
2022/04/29 12:20:44;;;;;;;17.80;6.97;;;;;;;;;;5258939;28;20499;-69
2022/04/29 12:23:19;;;;;;;14.57;7.10;;;;;;;;;;5262318;28;20057;-69
2022/04/29 12:25:51;;;;;;;16.50;6.90;;;;;;;;;;5263945;28;20032;-69
2022/04/29 12:28:29;;;;;;;15.55;6.45;;;;;;;;;;5262998;28;20394;-70
2022/04/29 12:36:57;;;;;;;14.18;5.82;;;;;;;;;;5263557;28;20437;-70
2022/04/29 12:39:40;;;;;;;10.82;5.57;;;;;;;;;;5263711;28;20033;-69
2022/04/29 12:42:11;;;;;;;11.60;5.72;;;;;;;;;;5263690;28;20517;-69
2022/04/29 12:47:40;;;;;;;39.08;7.28;;;;;;;;;;5263865;28;20128;-69
2022/04/29 12:50:19;;;;;;;10.68;5.13;;;;;;;;;;5263246;28;20100;-68
2022/04/29 12:52:50;;;;;;;;;;;;;;;;;;5263890;28;20448;-68
2022/04/29 12:55:21;;;;;;;15.43;4.90;;;;;;;;;;5263333;28;19961;-68
2022/04/29 12:58:03;;;;;;;11.65;5.45;;;;;;;;;;5263088;28;20025;-69
2022/04/29 13:00:36;;;;;;;14.73;5.07;;;;;;;;;;5263290;28;20021;-68
2022/04/29 13:03:16;;;;;;;11.32;4.30;;;;;;;;;;5263297;28;20067;-69
2022/04/29 13:05:47;;;;;;;12.70;5.15;;;;;;;;;;5263238;28;20056;-69
2022/04/29 13:08:18;;;;;;;13.65;5.18;;;;;;;;;;5263588;28;20132;-69
2022/04/29 13:10:53;;;;;;;9.68;5.32;;;;;;;;;;5262359;28;20112;-69
2022/04/29 13:13:26;;;;;;;13.25;5.00;;;;;;;;;;5263039;28;20083;-69
2022/04/29 13:15:57;;;;;;;12.05;5.93;;;;;;;;;;5262806;28;20041;-69
2022/04/29 13:18:29;;;;;;;13.60;5.35;;;;;;;;;;5262051;28;20429;-68
2022/04/29 13:21:05;;;;;;;18.88;5.90;;;;;;;;;;5263529;28;20016;-68
2022/04/29 13:23:37;;;;;;;15.90;6.40;;;;;;;;;;5263014;28;20443;-69
2022/04/29 13:26:09;;;;;;;19.35;5.88;;;;;;;;;;5262660;28;20017;-70
2022/04/29 13:28:42;;;;;;;14.65;6.60;;;;;;;;;;5262959;28;20028;-70
2022/04/29 13:31:13;;;;;;;17.55;6.85;;;;;;;;;;5262740;28;20013;-69
2022/04/29 13:33:44;;;;;;;14.10;6.47;;;;;;;;;;5262716;28;20078;-69
2022/04/29 13:36:16;;;;;;;7.93;5.40;;;;;;;;;;5263378;28;20377;-70
2022/04/29 13:38:48;;;;;;;19.67;6.18;;;;;;;;;;5261961;28;20052;-70
2022/04/29 13:41:19;;;;;;;17.10;6.90;;;;;;;;;;5262898;28;20018;-70
2022/04/29 13:43:50;;;;;;;14.15;7.60;;;;;;;;;;5263019;28;20025;-70
2022/04/29 13:46:21;;;;;;;11.48;6.65;;;;;;;;;;5261816;28;20039;-71
2022/04/29 13:48:53;;;;;;;12.93;6.15;;;;;;;;;;5266115;28;20027;-70
2022/04/29 13:51:24;;;;;;;14.68;6.18;;;;;;;;;;5282594;28;20510;-70
2022/04/29 13:53:55;;;;;;;13.98;6.57;;;;;;;;;;5282331;28;20052;-69
2022/04/29 13:56:26;;;;;;;13.93;6.50;;;;;;;;;;5283256;28;20028;-70
2022/04/29 13:58:57;;;;;;;16.97;7.27;;;;;;;;;;5283603;28;20301;-70
2022/04/29 14:01:29;;;;;;;11.50;5.93;;;;;;;;;;5282342;28;20282;-70
2022/04/29 14:04:00;;;;;;;9.10;5.68;;;;;;;;;;5283387;28;20505;-70
2022/04/29 14:06:31;;;;;;;11.82;5.25;;;;;;;;;;5281883;28;20364;-70
2022/04/29 14:09:02;;;;;;;14.13;6.45;;;;;;;;;;5283431;28;20016;-69
2022/04/29 14:11:34;;;;;;;16.08;6.25;;;;;;;;;;5282462;28;20271;-70
2022/04/29 14:14:05;;;;;;;16.67;6.63;;;;;;;;;;5282878;28;20023;-69
2022/04/29 14:16:36;;;;;;;16.70;6.85;;;;;;;;;;5282406;28;20040;-69
2022/04/29 14:19:07;;;;;;;15.63;5.80;;;;;;;;;;5283216;28;20383;-69
2022/04/29 14:21:38;;;;;;;12.90;6.57;;;;;;;;;;5282876;28;20021;-68
2022/04/29 14:24:10;;;;;;;17.98;6.65;;;;;;;;;;5278547;28;20259;-70
2022/04/29 14:26:41;;;;;;;10.35;5.63;;;;;;;;;;5281975;28;20024;-70
2022/04/29 14:29:14;;;;;;;14.45;6.30;;;;;;;;;;5281600;28;20029;-70
2022/04/29 14:31:45;;;;;;;22.05;6.93;;;;;;;;;;5281684;28;20259;-70
2022/04/29 14:34:17;;;;;;;13.93;6.85;;;;;;;;;;5281950;28;20070;-70
2022/04/29 14:36:48;;;;;;;11.52;6.30;;;;;;;;;;5281589;28;20089;-68
2022/04/29 14:39:19;;;;;;;17.50;7.00;;;;;;;;;;5282129;28;20036;-68
2022/04/29 14:41:51;;;;;;;18.00;6.70;;;;;;;;;;5280930;28;20609;-69
2022/04/29 14:44:23;;;;;;;12.35;5.68;;;;;;;;;;5281700;28;20058;-69
2022/04/29 14:46:54;;;;;;;14.32;6.80;;;;;;;;;;5282098;28;20413;-69
2022/04/29 14:49:26;;;;;;;16.00;6.20;;;;;;;;;;5281100;28;20025;-69
2022/04/29 14:51:58;;;;;;;16.85;6.32;;;;;;;;;;5282074;28;20741;-69
2022/04/29 14:54:30;;;;;;;15.70;6.43;;;;;;;;;;5281897;28;20078;-69
2022/04/29 14:57:01;;;;;;;16.77;5.47;;;;;;;;;;5281431;28;20066;-69
2022/04/29 14:59:32;;;;;;;16.52;6.20;;;;;;;;;;5281461;28;20024;-70
2022/04/29 15:02:04;;;;;;;9.93;5.50;;;;;;;;;;5281823;28;20024;-70
2022/04/29 15:04:35;;;;;;;12.20;5.63;;;;;;;;;;5280614;28;20764;-70
2022/04/29 15:07:06;;;;;;;14.18;6.40;;;;;;;;;;5282163;28;20353;-70
2022/04/29 15:15:35;;;;;;;9.98;5.30;;;;;;;;;;5281918;28;20049;-70
2022/04/29 15:18:07;;;;;;;10.88;5.45;;;;;;;;;;5281021;28;20384;-70
2022/04/29 15:20:39;;;;;;;17.85;6.15;;;;;;;;;;5281206;28;20399;-70
2022/04/29 15:23:11;;;;;;;16.42;6.38;;;;;;;;;;5281752;28;20046;-70
2022/04/29 15:25:42;;;;;;;10.40;6.13;;;;;;;;;;5280401;28;20119;-70
2022/04/29 15:28:13;;;;;;;10.23;5.78;;;;;;;;;;5281623;28;20028;-70
2022/04/29 15:30:48;;;;;;;14.23;5.83;;;;;;;;;;5280466;28;20381;-70
2022/04/29 15:33:20;;;;;;;10.55;5.10;;;;;;;;;;5281019;28;20275;-70
2022/04/29 15:35:51;;;;;;;9.35;5.55;;;;;;;;;;5281023;28;20025;-70